Terminal Aerodrome Forecast
Issued by NWS

Home | Current Version | Previous Version | Text Only | Print | Product List | Glossary On
Versions: 1 2 3 4 5 6 7 8 9 10 11 12 13 14 15 16 17 18 19 20 21 22 23 24 25 26
000
FTUS43 KABR 052058 AAD
TAFMBG
TAF AMD
KMBG 052058Z 0521/0618 31020G27KT 1/4SM SN BLSN BKN009 OVC015
     FM052200 31027G38KT 3SM BLSN BR VCSH OVC015
     FM060000 30028G40KT P6SM OVC035
     FM060200 30027G38KT P6SM BKN035
     FM061000 30021G30KT P6SM BKN040=

USA.gov is the U.S. government's official web portal to all federal, state and local government web resources and services.